Oden — SMLQ — position and weather

sailwx.info

Track history (hours):
 
Tides and Currents Weather Stations Pressure Air Temp Water Temp Dewpoint Dewpoint Depression Visibility Wind Speed Wind Dir Waves Ship Positions

Oceanographic research ship Oden (Sweden)

Detailed information on ship capabilities available from ARCUS's ALIAS (Arctic Logistics Information and Support) project.

Last reported at 2019-Feb-23 21:00 UTC. Time now 2019-Feb-23 22:49 UTC.
Position N 65°36' E 022°12'.

Length 108 m; draft 8.5 m.

Type: Other ship. MMSI: 265182000.

Wind from 300 at 8 knots

Barometer 1017.0 mb
Air temperature 5.8 ° C
Water temperature 1.1 ° C

Date/timePositionNaut miles runAvg speedWind from/ knotsBaromVisibWave heightAir tempDewpointWater temp
2019-Feb-23 21:00N 65°36' E 022°12'0 0.0 300 / 81017.0 5.8 1.1
2019-Feb-23 20:00N 65°36' E 022°12'0 0.0 300 / 121017.0 6.3 1.1
2019-Feb-23 18:00N 65°36' E 022°12'0 0.0 240 / 101019.0 5.9 1.0
2019-Feb-23 15:00N 65°36' E 022°12'0 0.0 150 / 81019.0 6.3 1.0
2019-Feb-23 13:00N 65°36' E 022°12'0 0.0 250 / 81018.0 7.4 1.0
2019-Feb-23 12:00N 65°36' E 022°12'0 0.0 220 / 101018.0 8.5 0.9
2019-Feb-23 09:00N 65°36' E 022°12'0 0.0 290 / 81017.0 8.0 0.9
2019-Feb-23 06:00N 65°36' E 022°12'0 0.0 290 / 61016.0 4.6 0.9
2019-Feb-23 03:00N 65°36' E 022°12'0 0.0 270 / 61016.0 4.8 0.9
2019-Feb-23 00:00N 65°36' E 022°12'0 0.0 290 / 101016.0 4.4 0.9
2019-Feb-22 23:00N 65°36' E 022°12'0 0.0 280 / 41017.0 3.0 0.9
2019-Feb-22 21:00N 65°36' E 022°12'0 0.0 210 / 61017.0 0.1 0.9
2019-Feb-22 19:00N 65°36' E 022°12'0 0.0 220 / 101019.0 -1.3 1.0
2019-Feb-22 18:00N 65°36' E 022°12'0 0.0 210 / 101020.0 -1.9 1.0
2019-Feb-22 15:00N 65°36' E 022°12'0 0.0 210 / 141023.0 -3.0 0.9
2019-Feb-22 12:00N 65°36' E 022°12'0 0.0 190 / 191027.0 -5.0 0.8
2019-Feb-22 11:00N 65°36' E 022°12'0 0.0 200 / 171028.0 -5.8 0.8
2019-Feb-22 10:00N 65°36' E 022°12'0 0.0 200 / 161029.0 -7.3 0.7
2019-Feb-22 09:00N 65°36' E 022°12'0 0.0 210 / 141031.0 -8.9 0.5
2019-Feb-22 06:00N 65°36' E 022°12'0 0.0 180 / 101033.0 -16.2 0.8
2019-Feb-22 03:00N 65°36' E 022°12'0 0.0 180 / 61034.0 -17.4 0.7
2019-Feb-22 02:00N 65°36' E 022°12'0 0.0 170 / 61034.0 -17.9 0.7
2019-Feb-22 01:00N 65°36' E 022°12'0 0.0 170 / 61034.0 -17.3 0.7
2019-Feb-22 00:00N 65°36' E 022°12'0 0.0 170 / 61034.0 -17.4 0.7
2019-Feb-21 23:00N 65°36' E 022°12'0 0.0 170 / 61033.0 -17.3 0.7
2019-Feb-21 21:00N 65°36' E 022°12'0 0.0 170 / 41033.0 -17.1 0.7
2019-Feb-21 20:00N 65°36' E 022°12'0 0.0 180 / 41032.0 -16.7 0.7
2019-Feb-21 19:00N 65°36' E 022°12'0 0.0 190 / 21032.0 -15.2 0.7
2019-Feb-21 18:00N 65°36' E 022°12'0 0.0 150 / 21031.0 -14.0 0.5
2019-Feb-21 15:00N 65°36' E 022°12'0 0.0 200 / 21029.0 -12.1 0.7
2019-Feb-21 14:00N 65°36' E 022°12'0 0.0 320 / 21029.0 -11.1 0.7
2019-Feb-21 13:00N 65°36' E 022°12'0 0.0 340 / 21028.0 -11.6 0.7
2019-Feb-21 12:00N 65°36' E 022°12'0 0.0 350 / 21028.0 -12.4 0.7
2019-Feb-21 11:00N 65°36' E 022°12'0 0.0 340 / 41027.0 -14.5 0.7
2019-Feb-21 10:00N 65°36' E 022°12'0 0.0 340 / 41026.0 -15.8 0.7
2019-Feb-21 09:00N 65°36' E 022°12'0 0.0 330 / 81026.0 -17.4 0.7
2019-Feb-21 08:00N 65°36' E 022°12'0 0.0 340 / 81025.0 -18.2 0.8
2019-Feb-21 07:00N 65°36' E 022°12'0 0.0 340 / 61024.0 -18.2 0.8
2019-Feb-21 06:00N 65°36' E 022°12'0 0.0 350 / 61024.0 -17.5 0.9
2019-Feb-21 05:00N 65°36' E 022°12'0 0.0 350 / 61023.0 -16.9 1.0
2019-Feb-21 04:00N 65°36' E 022°12'0 0.0 350 / 41022.0 -15.8 1.0
2019-Feb-21 03:00N 65°36' E 022°12'0 0.0 340 / 61022.0 -15.8 1.0
2019-Feb-21 02:00N 65°36' E 022°12'0 0.0 350 / 81021.0 -14.8 1.0
2019-Feb-21 01:00N 65°36' E 022°12'0 0.0 350 / 81020.0 -14.7 1.0
2019-Feb-21 00:00N 65°36' E 022°12'0 0.0 340 / 61020.0 -14.3 1.0
2019-Feb-20 23:00N 65°36' E 022°12'0 0.0 350 / 81019.0 -13.3 1.0
2019-Feb-20 22:00N 65°36' E 022°12'0 0.0 340 / 81019.0 -13.2 0.9
2019-Feb-20 21:00N 65°36' E 022°12'0 0.0 340 / 101018.0 -13.0 0.8
2019-Feb-20 20:00N 65°36' E 022°12'0 0.0 340 / 81017.0 -12.0 0.8
2019-Feb-20 19:00N 65°36' E 022°12'0 0.0 320 / 101017.0 -11.9 0.7
2019-Feb-20 18:00N 65°36' E 022°12'0 0.0 340 / 61016.0 -9.7 0.5
2019-Feb-20 17:00N 65°36' E 022°12'10 9.6 320 / 121015.0 -8.6 0.4
2019-Feb-20 16:00N 65°30' E 022°30'0 0.0 330 / 141013.0 -8.2 0.7
2019-Feb-20 15:00N 65°30' E 022°30'0 0.0 350 / 161012.0 -7.9 0.9
2019-Feb-20 14:00N 65°30' E 022°30'0 0.0 350 / 171010.0 -7.1 1.0
2019-Feb-20 13:00N 65°30' E 022°30'0 0.0 350 / 191009.0 -6.6 1.1
2019-Feb-20 12:00N 65°30' E 022°30'0 0.0 350 / 191007.0 -6.7 1.1
2019-Feb-20 11:00N 65°30' E 022°30'0 0.0 350 / 211006.0 -7.1 1.1
2019-Feb-20 10:00N 65°30' E 022°30'0 0.0 350 / 211004.0 -7.5 1.1
2019-Feb-20 09:00N 65°30' E 022°30'0 0.0 340 / 191002.0 -8.2 1.0
2019-Feb-20 08:00N 65°30' E 022°30'0 0.0 340 / 211001.0 -8.9 0.8
2019-Feb-20 07:00N 65°30' E 022°30'0 0.0 340 / 21999.0 -9.4 0.8
2019-Feb-20 06:00N 65°30' E 022°30'0 0.0 340 / 21997.0 -9.7 1.0
2019-Feb-20 05:00N 65°30' E 022°30'0 0.0 340 / 23995.0 -9.2 1.0
2019-Feb-20 04:00N 65°30' E 022°30'0 0.0 350 / 25994.0 -8.6 0.9
2019-Feb-20 03:00N 65°30' E 022°30'0 0.0 350 / 25992.0 -7.6 0.9
2019-Feb-20 02:00N 65°30' E 022°30'0 0.0 350 / 25991.0 -7.5 0.9
2019-Feb-20 01:00N 65°30' E 022°30'0 0.0 350 / 21989.0 -7.5 0.9
2019-Feb-20 00:00N 65°30' E 022°30'0 0.0 350 / 21987.0 -7.3 0.9
2019-Feb-19 23:00N 65°30' E 022°30'0 0.0 985.0 -6.2 0.9
2019-Feb-19 22:00N 65°30' E 022°30'0 0.0 360 / 17985.0 -4.6 0.9
2019-Feb-19 21:00N 65°30' E 022°30'0 0.0 340 / 4983.0 -2.9 0.9
2019-Feb-19 20:00N 65°30' E 022°30'0 0.0 210 / 10983.0 -2.8 0.9
2019-Feb-19 19:00N 65°30' E 022°30'0 0.0 190 / 6984.0 -3.0 0.9
2019-Feb-19 18:00N 65°30' E 022°30'0 0.0 160 / 6985.0 -3.6 1.0
2019-Feb-19 17:00N 65°30' E 022°30'0 0.0 090 / 4985.0 -3.1 1.0
2019-Feb-19 15:00N 65°30' E 022°30'0 0.0 130 / 4986.0 -1.3 1.0
2019-Feb-19 14:00N 65°30' E 022°30'0 0.0 170 / 4987.0 -1.5 1.0
2019-Feb-19 13:00N 65°30' E 022°30'0 0.0 220 / 6988.0 -0.4 1.0
2019-Feb-19 12:00N 65°30' E 022°30'0 0.0 230 / 4988.0 -0.8 1.0
2019-Feb-19 09:00N 65°30' E 022°30'0 0.0 210 / 6990.0 -1.1 1.0
2019-Feb-19 06:00N 65°30' E 022°30'0 0.0 210 / 10990.0 -2.3 1.0
2019-Feb-19 03:00N 65°30' E 022°30'0 0.0 250 / 6991.0 -0.9 0.9
2019-Feb-19 02:00N 65°30' E 022°30'0 0.0 240 / 16991.0 -0.1 1.0
2019-Feb-19 01:00N 65°30' E 022°30'0 0.0 230 / 14991.0 -0.2 0.9
2019-Feb-18 23:00N 65°30' E 022°30'0 0.0 230 / 14992.0 -0.7 0.9
2019-Feb-18 21:00N 65°30' E 022°30'0 0.0 230 / 12993.0 -0.7 0.8
2019-Feb-18 17:00N 65°30' E 022°30'0 0.0 220 / 14995.0 -0.2 0.9
2019-Feb-18 16:00N 65°30' E 022°30'0 0.0 230 / 14996.0 -0.3 0.8
2019-Feb-18 15:00N 65°30' E 022°30'0 0.0 220 / 16997.0 -0.5 0.8
2019-Feb-18 14:00N 65°30' E 022°30'0 0.0 220 / 16998.0 -0.6 0.9
2019-Feb-18 13:00N 65°30' E 022°30'0 0.0 220 / 141000.0 -0.7 0.9
2019-Feb-18 12:00N 65°30' E 022°30'0 0.0 210 / 161002.0 -1.2 0.8
2019-Feb-18 11:00N 65°30' E 022°30'0 0.0 210 / 191003.0 -1.8 0.8
2019-Feb-18 10:00N 65°30' E 022°30'0 0.0 200 / 211004.0 -2.2 0.6
2019-Feb-18 09:00N 65°30' E 022°30'1414.1 170 / 251006.0 -2.2 0.4
2019-Feb-18 08:00N 65°18' E 022°48'10 9.6 170 / 311008.0 -1.8 0.5
2019-Feb-18 07:00N 65°12' E 023°06'3 2.5 160 / 211010.0 -2.3 0.6
2019-Feb-18 06:00N 65°12' E 023°12'0 0.0 180 / 211011.0 -2.9 0.6
2019-Feb-18 05:00N 65°12' E 023°12'0 0.0 190 / 211013.0 -2.4 0.7
2019-Feb-18 04:00N 65°12' E 023°12'0 0.0 190 / 211014.0 -2.3 0.6
2019-Feb-18 03:00N 65°12' E 023°12'0 0.0 190 / 171015.0 -2.2 0.7
2019-Feb-18 02:00N 65°12' E 023°12'0 0.0 190 / 161016.0 -2.1 0.7
2019-Feb-18 01:00N 65°12' E 023°12'0 0.0 190 / 141017.0 -2.4 0.7
2019-Feb-18 00:00N 65°12' E 023°12'0 0.0 190 / 141018.0 -2.5 0.7
2019-Feb-17 23:00N 65°12' E 023°12'0 0.0 180 / 121019.0 -2.6 0.8
2019-Feb-17 22:00N 65°12' E 023°12'0 0.0 170 / 101019.0 -2.7 0.9
2019-Feb-17 21:00N 65°12' E 023°12'0 0.0 160 / 61019.0 -2.4 1.0
2019-Feb-17 20:00N 65°12' E 023°12'0 0.0 110 / 81019.0 -2.7 1.0
2019-Feb-17 19:00N 65°12' E 023°12'0 0.0 040 / 41019.0 -1.7 1.0
2019-Feb-17 18:00N 65°12' E 023°12'0 0.0 020 / 61019.0 -1.3 0.9
2019-Feb-17 17:00N 65°12' E 023°12'1313.0 360 / 81019.0 -1.5 0.5
2019-Feb-17 16:00N 65°00' E 023°00'7 6.5 020 / 101018.0 -0.4 0.6
2019-Feb-17 15:00N 64°54' E 022°54'1313.0 340 / 61018.0 -0.6 0.8
2019-Feb-17 14:00N 64°42' E 022°42'1313.1 020 / 141017.0 0.1 0.7
2019-Feb-17 13:00N 64°30' E 022°54'0 0.0 1017.0 -0.6 0.6
2019-Feb-17 12:00N 64°30' E 022°54'6 6.0 010 / 141016.0 -0.4 0.7
2019-Feb-17 11:00N 64°36' E 022°54'0 0.0 1015.0 -0.2 0.6
2019-Feb-17 10:00N 64°36' E 022°54'3 2.6 350 / 211013.0 -0.2 0.6
2019-Feb-17 09:00N 64°36' E 022°48'0 0.0 340 / 171012.0 -0.0 0.5
2019-Feb-17 08:00N 64°36' E 022°48'0 0.0 340 / 171011.0 0.2 0.5
2019-Feb-17 07:00N 64°36' E 022°48'0 0.0 330 / 191009.0 0.4 0.5
2019-Feb-17 06:00N 64°36' E 022°48'0 0.0 330 / 191008.0 0.5 0.5
2019-Feb-17 04:00N 64°36' E 022°48'0 0.0 340 / 231004.0 0.9 0.4
2019-Feb-17 03:00N 64°36' E 022°48'6 6.0 330 / 271003.0 1.5 0.4
2019-Feb-17 02:00N 64°42' E 022°48'5 5.1 320 / 251001.0 1.7 0.5
2019-Feb-17 01:00N 64°42' E 023°00'7 6.5 310 / 27997.0 1.5 0.5
2019-Feb-17 00:00N 64°36' E 022°54'6 6.0 290 / 29996.0 1.5 0.4
2019-Feb-16 23:00N 64°42' E 022°54'5 5.1 300 / 29993.0 1.9 0.5
2019-Feb-16 22:00N 64°42' E 023°06'7 6.5 290 / 25992.0 1.8 0.4
2019-Feb-16 21:00N 64°36' E 023°00'0 0.0 280 / 35991.0 1.8 0.5
2019-Feb-16 20:00N 64°36' E 023°00'3 2.6 290 / 35991.0 1.8 0.5
2019-Feb-16 19:00N 64°36' E 022°54'0 0.0 280 / 33991.0 1.6 0.5
2019-Feb-16 18:00N 64°36' E 022°54'0 0.0 260 / 31991.0 1.7 0.5
2019-Feb-16 17:00N 64°36' E 022°54'0 0.0 260 / 29992.0 1.9 0.5
2019-Feb-16 16:00N 64°36' E 022°54'3 2.6 270 / 27993.0 2.4 0.5
2019-Feb-16 15:00N 64°36' E 022°48'0 0.0 260 / 25993.0 2.6 0.5
2019-Feb-16 14:00N 64°36' E 022°48'0 0.0 250 / 21994.0 2.5 0.5
2019-Feb-16 13:00N 64°36' E 022°48'0 0.0 270 / 21994.0 3.2 0.6
2019-Feb-16 12:00N 64°36' E 022°48'0 0.0 250 / 17994.0 2.0 0.6
2019-Feb-16 11:00N 64°36' E 022°48'0 0.0 230 / 17994.0 1.5 0.6
2019-Feb-16 10:00N 64°36' E 022°48'0 0.0 220 / 17995.0 1.0 0.6
2019-Feb-16 09:00N 64°36' E 022°48'0 0.0 210 / 14995.0 0.4 0.6
2019-Feb-16 08:00N 64°36' E 022°48'7 6.5 210 / 17995.0 0.4 0.6
2019-Feb-16 07:00N 64°30' E 022°42'0 0.0 210 / 19996.0 0.4 0.5
2019-Feb-16 06:00N 64°30' E 022°42'0 0.0 200 / 21996.0 0.2 0.6
2019-Feb-16 05:00N 64°30' E 022°42'3 2.6 190 / 19997.0 0.1 0.5
2019-Feb-16 04:00N 64°30' E 022°36'8 7.9 210 / 21998.0 0.2 0.5
2019-Feb-16 03:00N 64°36' E 022°48'1414.3 210 / 231000.0 1.0 0.5
2019-Feb-16 02:00N 64°48' E 023°06'8 7.9 190 / 191001.0 -0.0 0.5
2019-Feb-16 01:00N 64°42' E 022°54'1313.1 200 / 121003.0 0.5 0.5
2019-Feb-16 00:00N 64°30' E 022°42'8 7.9 200 / 101005.0 1.5 0.4
2019-Feb-15 23:00N 64°24' E 022°30'7 6.5 250 / 141006.0 2.7 0.4
2019-Feb-15 22:00N 64°30' E 022°24'0 0.0 230 / 141006.0 2.0 0.5
2019-Feb-15 21:00N 64°30' E 022°24'5 5.2 240 / 121007.0 2.3 0.3
2019-Feb-15 20:00N 64°30' E 022°36'1414.3 260 / 171008.0 1.6 0.4
2019-Feb-15 19:00N 64°42' E 022°54'6 6.0 260 / 121008.0 2.0 0.6
2019-Feb-15 18:00N 64°36' E 022°54'10 9.8 250 / 141009.0 1.8 0.4
2019-Feb-15 17:00N 64°30' E 022°36'8 7.9 250 / 161009.0 2.4 0.4
2019-Feb-15 16:00N 64°36' E 022°48'0 0.0 270 / 161010.0 2.0 0.6
2019-Feb-15 15:00N 64°36' E 022°48'0 0.0 270 / 171009.0 1.3 0.6
2019-Feb-15 14:00N 64°36' E 022°48'0 0.0 260 / 161009.0 0.9 0.6
2019-Feb-15 13:00N 64°36' E 022°48'3 2.6 270 / 191008.0 2.0 0.6
2019-Feb-15 12:00N 64°36' E 022°42'3 2.6 260 / 231008.0 1.7 0.5
2019-Feb-15 11:00N 64°36' E 022°48'8 7.9 240 / 251006.0 1.9 0.5
2019-Feb-15 10:00N 64°30' E 022°36'5 5.2 250 / 251007.0 2.1 0.3
2019-Feb-15 09:00N 64°30' E 022°24'3 2.6 250 / 191006.0 2.2 0.4
2019-Feb-15 08:00N 64°30' E 022°18'1211.9 240 / 231006.0 2.9 0.3
2019-Feb-15 07:00N 64°36' E 022°42'1211.9 260 / 211004.0 3.1 0.3
2019-Feb-15 06:00N 64°30' E 022°18'5 5.2 250 / 231004.0 4.2 0.4
2019-Feb-15 05:00N 64°30' E 022°30'0 0.0 260 / 211003.0 3.3 0.3
2019-Feb-15 04:00N 64°30' E 022°30'10 9.8 270 / 211002.0 3.0 0.4
2019-Feb-15 03:00N 64°36' E 022°48'7 6.5 260 / 231000.0 3.2 0.4
2019-Feb-15 02:00N 64°42' E 022°54'1313.1 250 / 271000.0 2.6 0.6
2019-Feb-15 01:00N 64°30' E 022°42'8 7.9 260 / 271001.0 3.0 0.4
2019-Feb-15 00:00N 64°24' E 022°30'8 7.9 250 / 271002.0 3.2 0.3
2019-Feb-14 23:00N 64°18' E 022°18'8 7.9 250 / 271001.0 3.0 0.4
2019-Feb-14 22:00N 64°12' E 022°30'0 0.0 250 / 291002.0 2.8 0.6
2019-Feb-14 21:00N 64°12' E 022°30'3 2.6 260 / 331001.0 3.5 0.6
2019-Feb-14 20:00N 64°12' E 022°24'0 0.0 240 / 331000.0 3.2 0.5
2019-Feb-14 19:00N 64°12' E 022°24'0 0.0 240 / 331000.0 3.6 0.5
2019-Feb-14 18:00N 64°12' E 022°24'1212.3 230 / 391000.0 4.0 0.4
2019-Feb-14 17:00N 64°24' E 022°30'8 7.9 230 / 33999.0 4.0 0.4
2019-Feb-14 16:00N 64°30' E 022°42'0 0.0 230 / 271000.0 3.2 0.5
2019-Feb-14 15:00N 64°30' E 022°42'0 0.0 240 / 251000.0 1.4 0.5
2019-Feb-14 14:00N 64°30' E 022°42'3 2.6 230 / 251001.0 1.0 0.4
2019-Feb-14 13:00N 64°30' E 022°36'0 0.0 230 / 291002.0 1.0 0.4
2019-Feb-14 12:00N 64°30' E 022°36'0 0.0 210 / 251003.0 0.7 0.4
2019-Feb-14 11:00N 64°30' E 022°36'0 0.0 190 / 211005.0 -0.3 0.4
2019-Feb-14 10:00N 64°30' E 022°36'0 0.0 170 / 211007.0 -1.4 0.4
2019-Feb-14 09:00N 64°30' E 022°36'6 6.0 160 / 191009.0 -3.1 0.4
2019-Feb-14 08:00N 64°24' E 022°36'0 0.0 160 / 171011.0 -4.1 0.4
2019-Feb-14 07:00N 64°24' E 022°36'10 9.8 170 / 161012.0 -4.9 0.3
2019-Feb-14 06:00N 64°18' E 022°18'1313.1 180 / 121013.0 -5.2 0.3
2019-Feb-14 05:00N 64°06' E 022°06'1313.1 250 / 121014.0 -4.3 0.3
2019-Feb-14 04:00N 64°18' E 022°18'8 7.9 170 / 61014.0 -5.2 0.3
2019-Feb-14 03:00N 64°24' E 022°30'7 6.5 320 / 81014.0 -7.9 0.3
2019-Feb-14 02:00N 64°18' E 022°24'8 7.9 290 / 61014.0 -7.9 0.3
2019-Feb-14 01:00N 64°12' E 022°12'1313.1 340 / 101013.0 -7.5 0.3
2019-Feb-14 00:00N 64°00' E 022°00'8 8.0 350 / 81013.0 -7.3 0.3
2019-Feb-13 23:00N 64°06' E 022°12'0 0.0 350 / 101012.0 -8.1 0.5
2019-Feb-13 22:00N 64°06' E 022°12'0 0.0 360 / 121011.0 -7.9 0.5
2019-Feb-13 21:00N 64°06' E 022°12'   350 / 171009.0 -6.7 0.4
Track history (hours):
 
Tides and Currents Weather Stations Pressure Air Temp Water Temp Dewpoint Dewpoint Depression Visibility Wind Speed Wind Dir Waves Ship Positions

Oceanographic research ship Oden (Sweden)

Detailed information on ship capabilities available from ARCUS's ALIAS (Arctic Logistics Information and Support) project.

Last reported at 2019-Feb-23 21:00 UTC. Time now 2019-Feb-23 22:49 UTC.
Position N 65°36' E 022°12'.

Length 108 m; draft 8.5 m.

Type: Other ship. MMSI: 265182000.

Wind from 300 at 8 knots

Barometer 1017.0 mb
Air temperature 5.8 ° C
Water temperature 1.1 ° C

Date/timePositionNaut miles runAvg speedWind from/ knotsBaromVisibWave heightAir tempDewpointWater temp
2019-Feb-23 21:00N 65°36' E 022°12'0 0.0 300 / 81017.0 5.8 1.1
2019-Feb-23 20:00N 65°36' E 022°12'0 0.0 300 / 121017.0 6.3 1.1
2019-Feb-23 18:00N 65°36' E 022°12'0 0.0 240 / 101019.0 5.9 1.0
2019-Feb-23 15:00N 65°36' E 022°12'0 0.0 150 / 81019.0 6.3 1.0
2019-Feb-23 13:00N 65°36' E 022°12'0 0.0 250 / 81018.0 7.4 1.0
2019-Feb-23 12:00N 65°36' E 022°12'0 0.0 220 / 101018.0 8.5 0.9
2019-Feb-23 09:00N 65°36' E 022°12'0 0.0 290 / 81017.0 8.0 0.9
2019-Feb-23 06:00N 65°36' E 022°12'0 0.0 290 / 61016.0 4.6 0.9
2019-Feb-23 03:00N 65°36' E 022°12'0 0.0 270 / 61016.0 4.8 0.9
2019-Feb-23 00:00N 65°36' E 022°12'0 0.0 290 / 101016.0 4.4 0.9
2019-Feb-22 23:00N 65°36' E 022°12'0 0.0 280 / 41017.0 3.0 0.9
2019-Feb-22 21:00N 65°36' E 022°12'0 0.0 210 / 61017.0 0.1 0.9
2019-Feb-22 19:00N 65°36' E 022°12'0 0.0 220 / 101019.0 -1.3 1.0
2019-Feb-22 18:00N 65°36' E 022°12'0 0.0 210 / 101020.0 -1.9 1.0
2019-Feb-22 15:00N 65°36' E 022°12'0 0.0 210 / 141023.0 -3.0 0.9
2019-Feb-22 12:00N 65°36' E 022°12'0 0.0 190 / 191027.0 -5.0 0.8
2019-Feb-22 11:00N 65°36' E 022°12'0 0.0 200 / 171028.0 -5.8 0.8
2019-Feb-22 10:00N 65°36' E 022°12'0 0.0 200 / 161029.0 -7.3 0.7
2019-Feb-22 09:00N 65°36' E 022°12'0 0.0 210 / 141031.0 -8.9 0.5
2019-Feb-22 06:00N 65°36' E 022°12'0 0.0 180 / 101033.0 -16.2 0.8
2019-Feb-22 03:00N 65°36' E 022°12'0 0.0 180 / 61034.0 -17.4 0.7
2019-Feb-22 02:00N 65°36' E 022°12'0 0.0 170 / 61034.0 -17.9 0.7
2019-Feb-22 01:00N 65°36' E 022°12'0 0.0 170 / 61034.0 -17.3 0.7
2019-Feb-22 00:00N 65°36' E 022°12'0 0.0 170 / 61034.0 -17.4 0.7
2019-Feb-21 23:00N 65°36' E 022°12'0 0.0 170 / 61033.0 -17.3 0.7
2019-Feb-21 21:00N 65°36' E 022°12'0 0.0 170 / 41033.0 -17.1 0.7
2019-Feb-21 20:00N 65°36' E 022°12'0 0.0 180 / 41032.0 -16.7 0.7
2019-Feb-21 19:00N 65°36' E 022°12'0 0.0 190 / 21032.0 -15.2 0.7
2019-Feb-21 18:00N 65°36' E 022°12'0 0.0 150 / 21031.0 -14.0 0.5
2019-Feb-21 15:00N 65°36' E 022°12'0 0.0 200 / 21029.0 -12.1 0.7
2019-Feb-21 14:00N 65°36' E 022°12'0 0.0 320 / 21029.0 -11.1 0.7
2019-Feb-21 13:00N 65°36' E 022°12'0 0.0 340 / 21028.0 -11.6 0.7
2019-Feb-21 12:00N 65°36' E 022°12'0 0.0 350 / 21028.0 -12.4 0.7
2019-Feb-21 11:00N 65°36' E 022°12'0 0.0 340 / 41027.0 -14.5 0.7
2019-Feb-21 10:00N 65°36' E 022°12'0 0.0 340 / 41026.0 -15.8 0.7
2019-Feb-21 09:00N 65°36' E 022°12'0 0.0 330 / 81026.0 -17.4 0.7
2019-Feb-21 08:00N 65°36' E 022°12'0 0.0 340 / 81025.0 -18.2 0.8
2019-Feb-21 07:00N 65°36' E 022°12'0 0.0 340 / 61024.0 -18.2 0.8
2019-Feb-21 06:00N 65°36' E 022°12'0 0.0 350 / 61024.0 -17.5 0.9
2019-Feb-21 05:00N 65°36' E 022°12'0 0.0 350 / 61023.0 -16.9 1.0
2019-Feb-21 04:00N 65°36' E 022°12'0 0.0 350 / 41022.0 -15.8 1.0
2019-Feb-21 03:00N 65°36' E 022°12'0 0.0 340 / 61022.0 -15.8 1.0
2019-Feb-21 02:00N 65°36' E 022°12'0 0.0 350 / 81021.0 -14.8 1.0
2019-Feb-21 01:00N 65°36' E 022°12'0 0.0 350 / 81020.0 -14.7 1.0
2019-Feb-21 00:00N 65°36' E 022°12'0 0.0 340 / 61020.0 -14.3 1.0
2019-Feb-20 23:00N 65°36' E 022°12'0 0.0 350 / 81019.0 -13.3 1.0
2019-Feb-20 22:00N 65°36' E 022°12'0 0.0 340 / 81019.0 -13.2 0.9
2019-Feb-20 21:00N 65°36' E 022°12'0 0.0 340 / 101018.0 -13.0 0.8
2019-Feb-20 20:00N 65°36' E 022°12'0 0.0 340 / 81017.0 -12.0 0.8
2019-Feb-20 19:00N 65°36' E 022°12'0 0.0 320 / 101017.0 -11.9 0.7
2019-Feb-20 18:00N 65°36' E 022°12'0 0.0 340 / 61016.0 -9.7 0.5
2019-Feb-20 17:00N 65°36' E 022°12'10 9.6 320 / 121015.0 -8.6 0.4
2019-Feb-20 16:00N 65°30' E 022°30'0 0.0 330 / 141013.0 -8.2 0.7
2019-Feb-20 15:00N 65°30' E 022°30'0 0.0 350 / 161012.0 -7.9 0.9
2019-Feb-20 14:00N 65°30' E 022°30'0 0.0 350 / 171010.0 -7.1 1.0
2019-Feb-20 13:00N 65°30' E 022°30'0 0.0 350 / 191009.0 -6.6 1.1
2019-Feb-20 12:00N 65°30' E 022°30'0 0.0 350 / 191007.0 -6.7 1.1
2019-Feb-20 11:00N 65°30' E 022°30'0 0.0 350 / 211006.0 -7.1 1.1
2019-Feb-20 10:00N 65°30' E 022°30'0 0.0 350 / 211004.0 -7.5 1.1
2019-Feb-20 09:00N 65°30' E 022°30'0 0.0 340 / 191002.0 -8.2 1.0
2019-Feb-20 08:00N 65°30' E 022°30'0 0.0 340 / 211001.0 -8.9 0.8
2019-Feb-20 07:00N 65°30' E 022°30'0 0.0 340 / 21999.0 -9.4 0.8
2019-Feb-20 06:00N 65°30' E 022°30'0 0.0 340 / 21997.0 -9.7 1.0
2019-Feb-20 05:00N 65°30' E 022°30'0 0.0 340 / 23995.0 -9.2 1.0
2019-Feb-20 04:00N 65°30' E 022°30'0 0.0 350 / 25994.0 -8.6 0.9
2019-Feb-20 03:00N 65°30' E 022°30'0 0.0 350 / 25992.0 -7.6 0.9
2019-Feb-20 02:00N 65°30' E 022°30'0 0.0 350 / 25991.0 -7.5 0.9
2019-Feb-20 01:00N 65°30' E 022°30'0 0.0 350 / 21989.0 -7.5 0.9
2019-Feb-20 00:00N 65°30' E 022°30'0 0.0 350 / 21987.0 -7.3 0.9
2019-Feb-19 23:00N 65°30' E 022°30'0 0.0 985.0 -6.2 0.9
2019-Feb-19 22:00N 65°30' E 022°30'0 0.0 360 / 17985.0 -4.6 0.9
2019-Feb-19 21:00N 65°30' E 022°30'0 0.0 340 / 4983.0 -2.9 0.9
2019-Feb-19 20:00N 65°30' E 022°30'0 0.0 210 / 10983.0 -2.8 0.9
2019-Feb-19 19:00N 65°30' E 022°30'0 0.0 190 / 6984.0 -3.0 0.9
2019-Feb-19 18:00N 65°30' E 022°30'0 0.0 160 / 6985.0 -3.6 1.0
2019-Feb-19 17:00N 65°30' E 022°30'0 0.0 090 / 4985.0 -3.1 1.0
2019-Feb-19 15:00N 65°30' E 022°30'0 0.0 130 / 4986.0 -1.3 1.0
2019-Feb-19 14:00N 65°30' E 022°30'0 0.0 170 / 4987.0 -1.5 1.0
2019-Feb-19 13:00N 65°30' E 022°30'0 0.0 220 / 6988.0 -0.4 1.0
2019-Feb-19 12:00N 65°30' E 022°30'0 0.0 230 / 4988.0 -0.8 1.0
2019-Feb-19 09:00N 65°30' E 022°30'0 0.0 210 / 6990.0 -1.1 1.0
2019-Feb-19 06:00N 65°30' E 022°30'0 0.0 210 / 10990.0 -2.3 1.0
2019-Feb-19 03:00N 65°30' E 022°30'0 0.0 250 / 6991.0 -0.9 0.9
2019-Feb-19 02:00N 65°30' E 022°30'0 0.0 240 / 16991.0 -0.1 1.0
2019-Feb-19 01:00N 65°30' E 022°30'0 0.0 230 / 14991.0 -0.2 0.9
2019-Feb-18 23:00N 65°30' E 022°30'0 0.0 230 / 14992.0 -0.7 0.9
2019-Feb-18 21:00N 65°30' E 022°30'0 0.0 230 / 12993.0 -0.7 0.8
2019-Feb-18 17:00N 65°30' E 022°30'0 0.0 220 / 14995.0 -0.2 0.9
2019-Feb-18 16:00N 65°30' E 022°30'0 0.0 230 / 14996.0 -0.3 0.8
2019-Feb-18 15:00N 65°30' E 022°30'0 0.0 220 / 16997.0 -0.5 0.8
2019-Feb-18 14:00N 65°30' E 022°30'0 0.0 220 / 16998.0 -0.6 0.9
2019-Feb-18 13:00N 65°30' E 022°30'0 0.0 220 / 141000.0 -0.7 0.9
2019-Feb-18 12:00N 65°30' E 022°30'0 0.0 210 / 161002.0 -1.2 0.8
2019-Feb-18 11:00N 65°30' E 022°30'0 0.0 210 / 191003.0 -1.8 0.8
2019-Feb-18 10:00N 65°30' E 022°30'0 0.0 200 / 211004.0 -2.2 0.6
2019-Feb-18 09:00N 65°30' E 022°30'1414.1 170 / 251006.0 -2.2 0.4
2019-Feb-18 08:00N 65°18' E 022°48'10 9.6 170 / 311008.0 -1.8 0.5
2019-Feb-18 07:00N 65°12' E 023°06'3 2.5 160 / 211010.0 -2.3 0.6
2019-Feb-18 06:00N 65°12' E 023°12'0 0.0 180 / 211011.0 -2.9 0.6
2019-Feb-18 05:00N 65°12' E 023°12'0 0.0 190 / 211013.0 -2.4 0.7
2019-Feb-18 04:00N 65°12' E 023°12'0 0.0 190 / 211014.0 -2.3 0.6
2019-Feb-18 03:00N 65°12' E 023°12'0 0.0 190 / 171015.0 -2.2 0.7
2019-Feb-18 02:00N 65°12' E 023°12'0 0.0 190 / 161016.0 -2.1 0.7
2019-Feb-18 01:00N 65°12' E 023°12'0 0.0 190 / 141017.0 -2.4 0.7
2019-Feb-18 00:00N 65°12' E 023°12'0 0.0 190 / 141018.0 -2.5 0.7
2019-Feb-17 23:00N 65°12' E 023°12'0 0.0 180 / 121019.0 -2.6 0.8
2019-Feb-17 22:00N 65°12' E 023°12'0 0.0 170 / 101019.0 -2.7 0.9
2019-Feb-17 21:00N 65°12' E 023°12'0 0.0 160 / 61019.0 -2.4 1.0
2019-Feb-17 20:00N 65°12' E 023°12'0 0.0 110 / 81019.0 -2.7 1.0
2019-Feb-17 19:00N 65°12' E 023°12'0 0.0 040 / 41019.0 -1.7 1.0
2019-Feb-17 18:00N 65°12' E 023°12'0 0.0 020 / 61019.0 -1.3 0.9
2019-Feb-17 17:00N 65°12' E 023°12'1313.0 360 / 81019.0 -1.5 0.5
2019-Feb-17 16:00N 65°00' E 023°00'7 6.5 020 / 101018.0 -0.4 0.6
2019-Feb-17 15:00N 64°54' E 022°54'1313.0 340 / 61018.0 -0.6 0.8
2019-Feb-17 14:00N 64°42' E 022°42'1313.1 020 / 141017.0 0.1 0.7
2019-Feb-17 13:00N 64°30' E 022°54'0 0.0 1017.0 -0.6 0.6
2019-Feb-17 12:00N 64°30' E 022°54'6 6.0 010 / 141016.0 -0.4 0.7
2019-Feb-17 11:00N 64°36' E 022°54'0 0.0 1015.0 -0.2 0.6
2019-Feb-17 10:00N 64°36' E 022°54'3 2.6 350 / 211013.0 -0.2 0.6
2019-Feb-17 09:00N 64°36' E 022°48'0 0.0 340 / 171012.0 -0.0 0.5
2019-Feb-17 08:00N 64°36' E 022°48'0 0.0 340 / 171011.0 0.2 0.5
2019-Feb-17 07:00N 64°36' E 022°48'0 0.0 330 / 191009.0 0.4 0.5
2019-Feb-17 06:00N 64°36' E 022°48'0 0.0 330 / 191008.0 0.5 0.5
2019-Feb-17 04:00N 64°36' E 022°48'0 0.0 340 / 231004.0 0.9 0.4
2019-Feb-17 03:00N 64°36' E 022°48'6 6.0 330 / 271003.0 1.5 0.4
2019-Feb-17 02:00N 64°42' E 022°48'5 5.1 320 / 251001.0 1.7 0.5
2019-Feb-17 01:00N 64°42' E 023°00'7 6.5 310 / 27997.0 1.5 0.5
2019-Feb-17 00:00N 64°36' E 022°54'6 6.0 290 / 29996.0 1.5 0.4
2019-Feb-16 23:00N 64°42' E 022°54'5 5.1 300 / 29993.0 1.9 0.5
2019-Feb-16 22:00N 64°42' E 023°06'7 6.5 290 / 25992.0 1.8 0.4
2019-Feb-16 21:00N 64°36' E 023°00'0 0.0 280 / 35991.0 1.8 0.5
2019-Feb-16 20:00N 64°36' E 023°00'3 2.6 290 / 35991.0 1.8 0.5
2019-Feb-16 19:00N 64°36' E 022°54'0 0.0 280 / 33991.0 1.6 0.5
2019-Feb-16 18:00N 64°36' E 022°54'0 0.0 260 / 31991.0 1.7 0.5
2019-Feb-16 17:00N 64°36' E 022°54'0 0.0 260 / 29992.0 1.9 0.5
2019-Feb-16 16:00N 64°36' E 022°54'3 2.6 270 / 27993.0 2.4 0.5
2019-Feb-16 15:00N 64°36' E 022°48'0 0.0 260 / 25993.0 2.6 0.5
2019-Feb-16 14:00N 64°36' E 022°48'0 0.0 250 / 21994.0 2.5 0.5
2019-Feb-16 13:00N 64°36' E 022°48'0 0.0 270 / 21994.0 3.2 0.6
2019-Feb-16 12:00N 64°36' E 022°48'0 0.0 250 / 17994.0 2.0 0.6
2019-Feb-16 11:00N 64°36' E 022°48'0 0.0 230 / 17994.0 1.5 0.6
2019-Feb-16 10:00N 64°36' E 022°48'0 0.0 220 / 17995.0 1.0 0.6
2019-Feb-16 09:00N 64°36' E 022°48'0 0.0 210 / 14995.0 0.4 0.6
2019-Feb-16 08:00N 64°36' E 022°48'7 6.5 210 / 17995.0 0.4 0.6
2019-Feb-16 07:00N 64°30' E 022°42'0 0.0 210 / 19996.0 0.4 0.5
2019-Feb-16 06:00N 64°30' E 022°42'0 0.0 200 / 21996.0 0.2 0.6
2019-Feb-16 05:00N 64°30' E 022°42'3 2.6 190 / 19997.0 0.1 0.5
2019-Feb-16 04:00N 64°30' E 022°36'8 7.9 210 / 21998.0 0.2 0.5
2019-Feb-16 03:00N 64°36' E 022°48'1414.3 210 / 231000.0 1.0 0.5
2019-Feb-16 02:00N 64°48' E 023°06'8 7.9 190 / 191001.0 -0.0 0.5
2019-Feb-16 01:00N 64°42' E 022°54'1313.1 200 / 121003.0 0.5 0.5
2019-Feb-16 00:00N 64°30' E 022°42'8 7.9 200 / 101005.0 1.5 0.4
2019-Feb-15 23:00N 64°24' E 022°30'7 6.5 250 / 141006.0 2.7 0.4
2019-Feb-15 22:00N 64°30' E 022°24'0 0.0 230 / 141006.0 2.0 0.5
2019-Feb-15 21:00N 64°30' E 022°24'5 5.2 240 / 121007.0 2.3 0.3
2019-Feb-15 20:00N 64°30' E 022°36'1414.3 260 / 171008.0 1.6 0.4
2019-Feb-15 19:00N 64°42' E 022°54'6 6.0 260 / 121008.0 2.0 0.6
2019-Feb-15 18:00N 64°36' E 022°54'10 9.8 250 / 141009.0 1.8 0.4
2019-Feb-15 17:00N 64°30' E 022°36'8 7.9 250 / 161009.0 2.4 0.4
2019-Feb-15 16:00N 64°36' E 022°48'0 0.0 270 / 161010.0 2.0 0.6
2019-Feb-15 15:00N 64°36' E 022°48'0 0.0 270 / 171009.0 1.3 0.6
2019-Feb-15 14:00N 64°36' E 022°48'0 0.0 260 / 161009.0 0.9 0.6
2019-Feb-15 13:00N 64°36' E 022°48'3 2.6 270 / 191008.0 2.0 0.6
2019-Feb-15 12:00N 64°36' E 022°42'3 2.6 260 / 231008.0 1.7 0.5
2019-Feb-15 11:00N 64°36' E 022°48'8 7.9 240 / 251006.0 1.9 0.5
2019-Feb-15 10:00N 64°30' E 022°36'5 5.2 250 / 251007.0 2.1 0.3
2019-Feb-15 09:00N 64°30' E 022°24'3 2.6 250 / 191006.0 2.2 0.4
2019-Feb-15 08:00N 64°30' E 022°18'1211.9 240 / 231006.0 2.9 0.3
2019-Feb-15 07:00N 64°36' E 022°42'1211.9 260 / 211004.0 3.1 0.3
2019-Feb-15 06:00N 64°30' E 022°18'5 5.2 250 / 231004.0 4.2 0.4
2019-Feb-15 05:00N 64°30' E 022°30'0 0.0 260 / 211003.0 3.3 0.3
2019-Feb-15 04:00N 64°30' E 022°30'10 9.8 270 / 211002.0 3.0 0.4
2019-Feb-15 03:00N 64°36' E 022°48'7 6.5 260 / 231000.0 3.2 0.4
2019-Feb-15 02:00N 64°42' E 022°54'1313.1 250 / 271000.0 2.6 0.6
2019-Feb-15 01:00N 64°30' E 022°42'8 7.9 260 / 271001.0 3.0 0.4
2019-Feb-15 00:00N 64°24' E 022°30'8 7.9 250 / 271002.0 3.2 0.3
2019-Feb-14 23:00N 64°18' E 022°18'8 7.9 250 / 271001.0 3.0 0.4
2019-Feb-14 22:00N 64°12' E 022°30'0 0.0 250 / 291002.0 2.8 0.6
2019-Feb-14 21:00N 64°12' E 022°30'3 2.6 260 / 331001.0 3.5 0.6
2019-Feb-14 20:00N 64°12' E 022°24'0 0.0 240 / 331000.0 3.2 0.5
2019-Feb-14 19:00N 64°12' E 022°24'0 0.0 240 / 331000.0 3.6 0.5
2019-Feb-14 18:00N 64°12' E 022°24'1212.3 230 / 391000.0 4.0 0.4
2019-Feb-14 17:00N 64°24' E 022°30'8 7.9 230 / 33999.0 4.0 0.4
2019-Feb-14 16:00N 64°30' E 022°42'0 0.0 230 / 271000.0 3.2 0.5
2019-Feb-14 15:00N 64°30' E 022°42'0 0.0 240 / 251000.0 1.4 0.5
2019-Feb-14 14:00N 64°30' E 022°42'3 2.6 230 / 251001.0 1.0 0.4
2019-Feb-14 13:00N 64°30' E 022°36'0 0.0 230 / 291002.0 1.0 0.4
2019-Feb-14 12:00N 64°30' E 022°36'0 0.0 210 / 251003.0 0.7 0.4
2019-Feb-14 11:00N 64°30' E 022°36'0 0.0 190 / 211005.0 -0.3 0.4
2019-Feb-14 10:00N 64°30' E 022°36'0 0.0 170 / 211007.0 -1.4 0.4
2019-Feb-14 09:00N 64°30' E 022°36'6 6.0 160 / 191009.0 -3.1 0.4
2019-Feb-14 08:00N 64°24' E 022°36'0 0.0 160 / 171011.0 -4.1 0.4
2019-Feb-14 07:00N 64°24' E 022°36'10 9.8 170 / 161012.0 -4.9 0.3
2019-Feb-14 06:00N 64°18' E 022°18'1313.1 180 / 121013.0 -5.2 0.3
2019-Feb-14 05:00N 64°06' E 022°06'1313.1 250 / 121014.0 -4.3 0.3
2019-Feb-14 04:00N 64°18' E 022°18'8 7.9 170 / 61014.0 -5.2 0.3
2019-Feb-14 03:00N 64°24' E 022°30'7 6.5 320 / 81014.0 -7.9 0.3
2019-Feb-14 02:00N 64°18' E 022°24'8 7.9 290 / 61014.0 -7.9 0.3
2019-Feb-14 01:00N 64°12' E 022°12'1313.1 340 / 101013.0 -7.5 0.3
2019-Feb-14 00:00N 64°00' E 022°00'8 8.0 350 / 81013.0 -7.3 0.3
2019-Feb-13 23:00N 64°06' E 022°12'0 0.0 350 / 101012.0 -8.1 0.5
2019-Feb-13 22:00N 64°06' E 022°12'0 0.0 360 / 121011.0 -7.9 0.5
2019-Feb-13 21:00N 64°06' E 022°12'   350 / 171009.0 -6.7 0.4

Dump ship's entire track history